Time;durP1;ratioP1;P1;durP2;ratioP2;P2;SDS_P1;SDS_P2;PMS_P1;PMS_P2;Temp;Humidity;BMP_temperature;BMP_pressure;BME280_temperature;BME280_humidity;BME280_pressure;Samples;Min_cycle;Max_cycle;Signal;HPM_P1;HPM_P2
2023/04/04 00:00:38;;;;;;;3.27;2.40;;;0.00;99.90;;;;;;5030797;28;20470;-76
2023/04/04 00:03:07;;;;;;;3.80;2.27;;;-0.10;99.90;;;;;;5035406;28;20493;-78
2023/04/04 00:05:35;;;;;;;5.20;2.40;;;0.00;99.90;;;;;;5035361;28;20213;-78
2023/04/04 00:08:05;;;;;;;5.53;2.27;;;0.00;99.90;;;;;;5008358;28;20504;-76
2023/04/04 00:10:33;;;;;;;4.97;2.40;;;-0.10;99.90;;;;;;4995839;28;20484;-77
2023/04/04 00:13:04;;;;;;;4.27;2.60;;;-0.10;99.90;;;;;;4995053;28;20501;-76
2023/04/04 00:15:33;;;;;;;4.00;2.37;;;-0.10;99.90;;;;;;4999626;28;20495;-76
2023/04/04 00:18:04;;;;;;;4.03;2.20;;;-0.20;99.90;;;;;;5034677;28;20462;-77
2023/04/04 00:20:33;;;;;;;3.60;2.40;;;-0.20;99.90;;;;;;5034607;28;20475;-77
2023/04/04 00:23:01;;;;;;;3.67;2.50;;;-0.20;99.90;;;;;;5033938;28;20482;-76
2023/04/04 00:25:30;;;;;;;5.30;2.40;;;-0.30;99.90;;;;;;5032751;28;20464;-76
2023/04/04 00:28:00;;;;;;;4.67;2.47;;;-0.30;99.90;;;;;;5033460;28;20822;-78
2023/04/04 00:30:28;;;;;;;3.60;2.40;;;-0.30;99.90;;;;;;5034194;28;20498;-76
2023/04/04 00:32:56;;;;;;;3.70;2.30;;;-0.30;99.90;;;;;;5032360;28;20549;-78
2023/04/04 00:35:25;;;;;;;5.07;2.70;;;-0.40;99.90;;;;;;5034333;28;20533;-75
2023/04/04 00:37:53;;;;;;;5.20;2.50;;;-0.50;99.90;;;;;;5034100;28;20490;-77
2023/04/04 00:40:24;;;;;;;3.40;2.17;;;-0.60;99.90;;;;;;5034521;28;20460;-77
2023/04/04 00:42:54;;;;;;;4.83;2.27;;;-0.60;99.90;;;;;;5033223;28;20459;-76
2023/04/04 00:45:22;;;;;;;4.70;2.50;;;-0.70;99.90;;;;;;5034025;28;20461;-77
2023/04/04 00:47:52;;;;;;;4.57;2.20;;;-0.70;99.90;;;;;;5037052;28;20510;-74
2023/04/04 00:50:20;;;;;;;4.33;2.30;;;-0.80;99.90;;;;;;5037270;28;20497;-75
2023/04/04 00:52:48;;;;;;;4.27;2.50;;;-0.80;99.90;;;;;;5034006;28;20501;-76
2023/04/04 00:55:18;;;;;;;3.83;2.37;;;-0.90;99.90;;;;;;5034121;28;20483;-76
2023/04/04 00:57:46;;;;;;;4.50;2.27;;;-1.00;99.90;;;;;;5033027;28;20468;-78
2023/04/04 01:00:16;;;;;;;4.27;2.40;;;-1.00;99.90;;;;;;5033662;28;20489;-78
2023/04/04 01:02:45;;;;;;;4.33;2.40;;;-1.10;99.90;;;;;;5033708;28;20442;-78
2023/04/04 01:05:13;;;;;;;3.97;2.50;;;-1.10;99.90;;;;;;5033866;28;20513;-78
2023/04/04 01:07:41;;;;;;;4.03;2.40;;;-1.20;99.90;;;;;;5032624;28;20964;-77
2023/04/04 01:10:11;;;;;;;6.77;2.60;;;-1.20;99.90;;;;;;5033691;28;20452;-77
2023/04/04 01:12:41;;;;;;;4.23;2.43;;;-1.30;99.90;;;;;;5033491;28;20447;-76
2023/04/04 01:15:10;;;;;;;4.53;2.77;;;-1.30;99.90;;;;;;5033601;28;20487;-75
2023/04/04 01:17:40;;;;;;;6.50;2.43;;;-1.40;99.90;;;;;;5031209;28;20467;-76
2023/04/04 01:20:12;;;;;;;3.90;2.33;;;-1.40;99.90;;;;;;5033602;28;20438;-73
2023/04/04 01:22:42;;;;;;;4.47;2.50;;;-1.50;99.90;;;;;;5033306;28;20460;-74
2023/04/04 01:25:12;;;;;;;5.80;2.70;;;-1.30;99.90;;;;;;5031597;28;20447;-75
2023/04/04 01:27:42;;;;;;;5.93;3.27;;;-1.60;99.90;;;;;;5033506;28;20437;-75
2023/04/04 01:30:11;;;;;;;4.47;2.60;;;-1.60;99.90;;;;;;5033248;28;20452;-75
2023/04/04 01:32:45;;;;;;;3.90;2.50;;;-1.60;99.90;;;;;;5030825;28;20454;-74
2023/04/04 01:35:22;;;;;;;4.93;2.60;;;-1.70;99.90;;;;;;5013048;28;20488;-75
2023/04/04 01:37:58;;;;;;;4.30;2.60;;;-1.80;99.90;;;;;;5013341;28;20432;-74
2023/04/04 01:40:33;;;;;;;4.67;2.53;;;-1.80;99.90;;;;;;5013085;28;20479;-74
2023/04/04 01:43:06;;;;;;;5.37;2.60;;;-1.80;99.90;;;;;;5017933;28;20529;-78
2023/04/04 01:45:34;;;;;;;4.43;2.50;;;-1.80;99.90;;;;;;5033220;28;20433;-75
2023/04/04 01:48:02;;;;;;;5.90;2.60;;;-1.80;99.90;;;;;;5036438;28;20454;-74
2023/04/04 01:50:30;;;;;;;4.77;2.30;;;-1.90;99.90;;;;;;5037114;28;20471;-73
2023/04/04 01:52:59;;;;;;;5.07;2.80;;;-1.90;99.90;;;;;;5031883;28;20456;-74
2023/04/04 01:55:27;;;;;;;4.87;2.60;;;-2.00;99.90;;;;;;5032394;28;20487;-76
2023/04/04 01:57:55;;;;;;;5.20;2.60;;;-1.90;99.90;;;;;;5013864;28;20551;-74
2023/04/04 02:00:25;;;;;;;5.70;2.50;;;-1.80;99.90;;;;;;5017168;28;20809;-76
2023/04/04 02:02:53;;;;;;;5.53;2.57;;;-2.00;99.90;;;;;;5032186;28;20986;-75
2023/04/04 02:05:21;;;;;;;6.00;2.63;;;-2.00;99.90;;;;;;5032769;28;20537;-73
2023/04/04 02:07:50;;;;;;;5.03;2.77;;;-2.00;99.90;;;;;;5031316;28;20473;-74
2023/04/04 02:10:19;;;;;;;4.30;2.80;;;-1.70;99.90;;;;;;5032427;28;20984;-76
2023/04/04 02:12:47;;;;;;;5.97;2.70;;;-2.10;99.90;;;;;;5031917;28;20517;-75
2023/04/04 02:15:15;;;;;;;5.80;2.47;;;-1.90;99.90;;;;;;5032357;28;20578;-76
2023/04/04 02:17:48;;;;;;;4.13;2.60;;;-2.10;99.90;;;;;;5030427;28;20473;-75
2023/04/04 02:20:17;;;;;;;4.03;2.60;;;-2.10;99.90;;;;;;5032184;28;20517;-75
2023/04/04 02:22:51;;;;;;;5.63;2.53;;;-2.10;99.90;;;;;;5031768;28;20455;-75
2023/04/04 02:25:19;;;;;;;4.10;2.37;;;-2.20;99.90;;;;;;5030492;28;20424;-75
2023/04/04 02:27:48;;;;;;;4.37;2.60;;;-2.30;99.90;;;;;;5031958;28;20459;-72
2023/04/04 02:30:16;;;;;;;5.43;2.80;;;-2.30;99.90;;;;;;5032176;28;20454;-73
2023/04/04 02:32:44;;;;;;;4.37;2.80;;;-2.10;99.90;;;;;;5031913;28;20456;-73
2023/04/04 02:35:14;;;;;;;4.23;2.40;;;-2.30;99.90;;;;;;5030136;28;20502;-74
2023/04/04 02:37:43;;;;;;;6.77;2.60;;;-2.30;99.90;;;;;;5032379;28;20447;-72
2023/04/04 02:40:13;;;;;;;3.90;2.90;;;-2.30;99.90;;;;;;5032557;28;20447;-73
2023/04/04 02:42:44;;;;;;;4.90;2.60;;;-2.50;99.90;;;;;;5029952;28;20860;-73
2023/04/04 02:45:13;;;;;;;5.00;2.90;;;-2.40;99.90;;;;;;5033556;28;20459;-73
2023/04/04 02:47:42;;;;;;;4.47;2.67;;;-2.40;99.90;;;;;;5032344;28;20478;-73
2023/04/04 02:50:11;;;;;;;6.00;2.80;;;-2.40;99.90;;;;;;5038077;28;20495;-77
2023/04/04 02:52:41;;;;;;;5.90;2.80;;;-2.50;99.90;;;;;;5030489;28;20474;-74
2023/04/04 02:55:10;;;;;;;5.33;2.60;;;-2.50;99.90;;;;;;5031703;28;20467;-75
2023/04/04 02:57:39;;;;;;;5.17;3.17;;;-2.50;99.90;;;;;;5043723;28;20486;-75
2023/04/04 03:00:08;;;;;;;4.67;2.77;;;-2.60;99.90;;;;;;5037260;28;21043;-76
2023/04/04 03:02:36;;;;;;;4.93;3.00;;;-2.50;99.90;;;;;;5034967;28;20452;-75
2023/04/04 03:05:05;;;;;;;7.57;2.90;;;-2.50;99.90;;;;;;5036385;28;20451;-75
2023/04/04 03:07:38;;;;;;;6.77;3.27;;;-2.50;99.90;;;;;;5035084;28;20906;-73
2023/04/04 03:10:08;;;;;;;5.77;2.70;;;-2.60;99.90;;;;;;5036335;28;20898;-75
2023/04/04 03:12:36;;;;;;;5.47;2.90;;;-2.70;99.90;;;;;;5039320;28;20426;-75
2023/04/04 03:15:06;;;;;;;5.23;2.80;;;-2.70;99.90;;;;;;5048100;28;20556;-75
2023/04/04 03:17:34;;;;;;;4.37;2.90;;;-2.70;99.90;;;;;;5036249;28;20550;-74
2023/04/04 03:20:02;;;;;;;4.80;2.87;;;-2.70;99.90;;;;;;5030881;28;20555;-75
2023/04/04 03:22:31;;;;;;;6.67;3.03;;;-2.70;99.90;;;;;;5030234;28;20457;-73
2023/04/04 03:24:59;;;;;;;4.53;2.70;;;-2.70;99.90;;;;;;5029995;28;20460;-74
2023/04/04 03:27:28;;;;;;;7.13;3.30;;;-2.70;99.90;;;;;;5034704;28;20455;-75
2023/04/04 03:29:56;;;;;;;4.17;2.83;;;-2.80;99.90;;;;;;5032180;28;20627;-73
2023/04/04 03:32:24;;;;;;;5.67;2.87;;;-2.80;99.90;;;;;;5031620;28;20547;-74
2023/04/04 03:34:52;;;;;;;6.63;3.10;;;-2.80;99.90;;;;;;5031634;28;20494;-73
2023/04/04 03:37:20;;;;;;;4.33;2.50;;;-2.80;99.90;;;;;;5029003;28;20489;-73
2023/04/04 03:39:48;;;;;;;5.90;2.90;;;-2.90;99.90;;;;;;5031322;28;20542;-73
2023/04/04 03:42:17;;;;;;;6.33;3.00;;;-2.90;99.90;;;;;;5031163;28;20447;-75
2023/04/04 03:45:01;;;;;;;5.47;3.00;;;-2.90;99.90;;;;;;5024116;28;20519;-74
2023/04/04 03:47:30;;;;;;;5.80;3.20;;;-2.90;99.90;;;;;;4990002;28;20489;-73
2023/04/04 03:49:58;;;;;;;5.53;2.90;;;-2.90;99.90;;;;;;4991980;28;20469;-75
2023/04/04 03:52:26;;;;;;;6.73;3.10;;;-3.00;99.90;;;;;;4991556;28;20444;-74
2023/04/04 03:54:54;;;;;;;4.03;2.90;;;-3.00;99.90;;;;;;5015786;28;20471;-74
2023/04/04 03:57:22;;;;;;;5.30;2.90;;;-3.00;99.90;;;;;;5031545;28;20891;-74
2023/04/04 03:59:50;;;;;;;8.37;3.00;;;-3.00;99.90;;;;;;5031456;28;20540;-74
2023/04/04 04:02:20;;;;;;;5.13;2.87;;;-3.00;99.90;;;;;;5033181;28;20485;-74
2023/04/04 04:04:48;;;;;;;8.83;4.10;;;-3.00;99.90;;;;;;5032967;28;20475;-74
2023/04/04 04:07:16;;;;;;;5.93;3.73;;;-3.00;99.90;;;;;;5034802;28;20487;-74
2023/04/04 04:09:44;;;;;;;5.80;3.23;;;-3.00;99.90;;;;;;5034829;28;20822;-74
2023/04/04 04:12:12;;;;;;;5.50;2.90;;;-3.10;99.90;;;;;;5034546;28;20458;-75
2023/04/04 04:14:40;;;;;;;6.23;2.90;;;-3.10;99.90;;;;;;5032890;28;20475;-75
2023/04/04 04:17:08;;;;;;;7.10;3.10;;;-3.10;99.90;;;;;;5034856;28;20471;-74
2023/04/04 04:19:38;;;;;;;4.93;3.07;;;-3.20;99.90;;;;;;5034551;28;20451;-74
2023/04/04 04:22:06;;;;;;;5.63;3.10;;;-3.20;99.90;;;;;;5032586;28;20871;-75
2023/04/04 04:24:34;;;;;;;4.50;3.13;;;-3.10;99.90;;;;;;5034586;28;20452;-74
2023/04/04 04:27:02;;;;;;;4.87;3.03;;;-3.20;99.90;;;;;;5034195;28;20949;-75
2023/04/04 04:29:30;;;;;;;6.37;3.10;;;-3.20;99.90;;;;;;5032859;28;20451;-76
2023/04/04 04:31:58;;;;;;;6.07;3.10;;;-3.20;99.90;;;;;;5034398;28;20448;-75
2023/04/04 04:34:26;;;;;;;5.77;3.13;;;-3.20;99.90;;;;;;5034451;28;20481;-76
2023/04/04 04:36:56;;;;;;;5.93;3.40;;;-3.30;99.90;;;;;;5034575;28;20487;-76
2023/04/04 04:39:24;;;;;;;6.77;3.47;;;-3.30;99.90;;;;;;5032884;28;20472;-74
2023/04/04 04:41:52;;;;;;;4.50;2.90;;;-3.30;99.90;;;;;;5034161;28;20811;-73
2023/04/04 04:44:20;;;;;;;7.93;3.50;;;-3.30;99.90;;;;;;5034268;28;20460;-75
2023/04/04 04:46:48;;;;;;;6.23;3.23;;;-3.30;99.90;;;;;;5034319;28;20495;-74
2023/04/04 04:49:17;;;;;;;9.67;3.20;;;-3.30;99.90;;;;;;5031769;28;21049;-75
2023/04/04 04:51:46;;;;;;;4.57;2.90;;;-3.40;99.90;;;;;;5031614;28;20455;-75
2023/04/04 04:54:15;;;;;;;4.97;3.17;;;-3.40;99.90;;;;;;5014697;28;20551;-74
2023/04/04 04:56:43;;;;;;;5.37;3.10;;;-3.40;99.90;;;;;;5017078;28;20574;-75
2023/04/04 04:59:11;;;;;;;6.73;3.40;;;-3.40;99.90;;;;;;5032354;28;20883;-75
2023/04/04 05:01:40;;;;;;;5.07;3.00;;;-3.30;99.90;;;;;;5014293;28;20457;-75
2023/04/04 05:04:08;;;;;;;5.23;3.07;;;-3.30;99.90;;;;;;5014412;28;20441;-76
2023/04/04 05:06:36;;;;;;;6.73;3.10;;;-3.30;99.90;;;;;;5031611;28;20460;-75
2023/04/04 05:09:05;;;;;;;8.03;4.03;;;-3.30;99.90;;;;;;5034124;28;20960;-75
2023/04/04 05:11:34;;;;;;;5.53;3.27;;;-3.30;99.90;;;;;;5034049;28;20896;-76
2023/04/04 05:14:03;;;;;;;6.90;3.80;;;-3.30;99.90;;;;;;5031549;28;20463;-74
2023/04/04 05:16:31;;;;;;;6.83;3.47;;;-3.30;99.90;;;;;;5034158;28;20459;-75
2023/04/04 05:18:59;;;;;;;5.83;3.23;;;-3.20;99.90;;;;;;5034231;28;20488;-75
2023/04/04 05:21:28;;;;;;;7.40;3.60;;;-3.20;99.90;;;;;;5032882;28;20472;-76
2023/04/04 05:23:57;;;;;;;9.40;3.33;;;-3.10;99.90;;;;;;5035703;28;20547;-75
2023/04/04 05:26:25;;;;;;;4.87;3.17;;;-3.10;99.90;;;;;;5033343;28;20455;-75
2023/04/04 05:28:55;;;;;;;6.77;3.50;;;-3.10;99.90;;;;;;5033647;28;20483;-74
2023/04/04 05:31:23;;;;;;;7.47;3.53;;;-3.00;99.90;;;;;;5031645;28;20466;-76
2023/04/04 05:33:52;;;;;;;7.53;3.90;;;-3.00;99.90;;;;;;5033309;28;20443;-76
2023/04/04 05:36:20;;;;;;;6.07;3.50;;;-2.90;99.90;;;;;;5033650;28;20474;-77
2023/04/04 05:38:49;;;;;;;7.10;3.40;;;-2.90;99.90;;;;;;5033293;28;20483;-74
2023/04/04 05:41:17;;;;;;;6.90;3.60;;;-2.80;99.90;;;;;;5031216;28;20475;-76
2023/04/04 05:43:45;;;;;;;8.50;3.60;;;-2.80;99.90;;;;;;5033177;28;20447;-75
2023/04/04 05:46:14;;;;;;;6.83;3.37;;;-2.70;99.90;;;;;;5033330;28;20966;-77
2023/04/04 05:48:43;;;;;;;10.43;4.10;;;-2.60;99.90;;;;;;5032537;28;21293;-74
2023/04/04 05:51:11;;;;;;;5.43;3.20;;;-2.60;99.90;;;;;;5024942;28;20483;-74
2023/04/04 05:53:39;;;;;;;6.77;4.20;;;-2.50;99.90;;;;;;5020839;28;20472;-74
2023/04/04 05:56:07;;;;;;;8.60;3.93;;;-2.40;99.90;;;;;;5013301;28;20549;-74
2023/04/04 05:58:35;;;;;;;5.90;3.60;;;-2.40;99.90;;;;;;5016245;28;20502;-76
2023/04/04 06:01:07;;;;;;;7.67;3.43;;;-2.30;99.90;;;;;;5031344;28;20467;-74
2023/04/04 06:03:37;;;;;;;7.67;3.80;;;-2.20;99.90;;;;;;5033239;28;20501;-75
2023/04/04 06:06:05;;;;;;;8.53;3.83;;;-2.10;99.90;;;;;;5025246;28;20670;-75
2023/04/04 06:08:33;;;;;;;8.07;3.80;;;-1.90;99.90;;;;;;5032010;28;20462;-75
2023/04/04 06:11:20;;;;;;;5.90;3.70;;;-1.70;99.90;;;;;;5033368;28;20580;-74
2023/04/04 06:13:50;;;;;;;5.10;3.50;;;-1.30;99.90;;;;;;5032760;28;20486;-73
2023/04/04 06:16:18;;;;;;;10.53;3.27;;;-0.60;99.90;;;;;;5030727;28;20475;-74
2023/04/04 06:18:47;;;;;;;6.80;3.10;;;0.40;99.90;;;;;;5032738;28;20483;-75
2023/04/04 06:21:15;;;;;;;6.73;3.17;;;1.30;99.90;;;;;;5033254;28;20566;-73
2023/04/04 06:23:43;;;;;;;4.03;2.80;;;2.00;99.90;;;;;;5032261;28;20649;-73
2023/04/04 06:26:12;;;;;;;6.57;3.23;;;2.50;99.90;;;;;;5029872;28;20606;-73
2023/04/04 06:28:48;;;;;;;6.80;3.70;;;3.50;99.90;;;;;;5032701;28;20568;-74
2023/04/04 06:31:16;;;;;;;32.13;18.67;;;3.80;99.90;;;;;;5032756;28;20266;-74
2023/04/04 06:33:44;;;;;;;13.27;7.53;;;4.70;99.90;;;;;;5030185;28;20243;-74
2023/04/04 06:36:13;;;;;;;4.97;3.20;;;5.30;99.90;;;;;;5033182;28;20607;-75
2023/04/04 06:38:42;;;;;;;3.83;2.83;;;5.60;95.40;;;;;;5032279;28;20232;-75
2023/04/04 06:41:10;;;;;;;6.30;3.00;;;6.30;93.30;;;;;;5032677;28;20213;-75
2023/04/04 06:43:38;;;;;;;4.40;2.87;;;6.20;90.10;;;;;;5030382;28;20209;-75
2023/04/04 06:46:06;;;;;;;6.07;2.80;;;5.60;90.00;;;;;;5032546;28;20605;-76
2023/04/04 06:48:35;;;;;;;5.40;3.33;;;5.80;90.20;;;;;;5033248;28;20293;-75
2023/04/04 06:51:05;;;;;;;5.27;3.17;;;5.90;87.30;;;;;;4992625;28;20260;-76
2023/04/04 06:53:36;;;;;;;5.17;3.00;;;6.10;88.30;;;;;;4992809;28;20213;-76
2023/04/04 06:56:05;;;;;;;4.30;2.90;;;6.70;82.80;;;;;;4992746;28;20682;-77
2023/04/04 06:58:33;;;;;;;5.43;2.83;;;6.90;79.60;;;;;;4992922;28;20226;-76
2023/04/04 07:01:02;;;;;;;4.60;2.77;;;6.90;78.20;;;;;;5030729;28;20304;-77
2023/04/04 07:03:30;;;;;;;5.23;2.97;;;7.40;78.30;;;;;;5031690;28;20235;-78
2023/04/04 07:06:01;;;;;;;4.17;2.93;;;7.40;76.80;;;;;;5032015;28;20197;-77
2023/04/04 07:08:31;;;;;;;6.73;3.20;;;7.60;75.10;;;;;;5030429;28;20625;-77
2023/04/04 07:11:06;;;;;;;6.27;3.40;;;8.00;72.90;;;;;;5016831;28;20251;-77
2023/04/04 07:13:35;;;;;;;5.53;3.40;;;7.40;70.50;;;;;;5012214;28;20656;-77
2023/04/04 07:16:03;;;;;;;4.67;2.90;;;7.80;71.00;;;;;;5012146;28;20221;-78
2023/04/04 07:18:31;;;;;;;5.37;3.00;;;7.90;68.60;;;;;;5031049;28;20237;-77
2023/04/04 07:20:59;;;;;;;4.10;2.80;;;7.70;69.70;;;;;;5031702;28;20304;-80
2023/04/04 07:23:28;;;;;;;6.27;3.40;;;6.60;68.80;;;;;;5031904;28;20226;-76
2023/04/04 07:25:56;;;;;;;5.83;2.93;;;7.10;71.00;;;;;;5030862;28;20219;-78
2023/04/04 07:28:26;;;;;;;4.23;2.97;;;8.20;69.40;;;;;;5032121;28;20209;-78
2023/04/04 07:30:54;;;;;;;4.63;2.73;;;8.90;65.10;;;;;;5032067;28;20316;-77
2023/04/04 07:33:22;;;;;;;5.80;2.93;;;8.70;62.60;;;;;;5031217;28;20231;-77
2023/04/04 07:35:51;;;;;;;3.73;2.60;;;8.70;62.90;;;;;;5031835;28;20305;-77
2023/04/04 07:38:19;;;;;;;5.13;3.10;;;9.10;60.50;;;;;;5036062;28;20237;-76
2023/04/04 07:40:49;;;;;;;4.93;3.23;;;8.80;59.40;;;;;;5035715;28;20773;-75
2023/04/04 07:43:17;;;;;;;4.00;2.93;;;8.90;58.80;;;;;;5033642;28;20240;-77
2023/04/04 07:45:46;;;;;;;4.33;2.90;;;9.30;58.30;;;;;;5035878;28;20308;-77
2023/04/04 07:48:15;;;;;;;4.57;3.07;;;9.70;59.00;;;;;;5027064;28;20255;-76
2023/04/04 07:50:43;;;;;;;4.27;2.80;;;8.90;56.60;;;;;;5022344;28;20229;-75
2023/04/04 07:53:11;;;;;;;5.17;3.30;;;9.60;59.10;;;;;;5036097;28;20213;-75
2023/04/04 07:55:40;;;;;;;4.00;2.90;;;10.00;54.80;;;;;;5037052;28;20259;-74
2023/04/04 07:58:08;;;;;;;5.87;3.80;;;8.90;57.40;;;;;;5040298;28;20209;-76
2023/04/04 08:00:36;;;;;;;6.27;3.20;;;9.30;57.00;;;;;;5040445;28;20205;-75
2023/04/04 08:03:06;;;;;;;4.37;2.87;;;9.50;56.30;;;;;;5037574;28;20722;-75
2023/04/04 08:05:34;;;;;;;4.43;3.10;;;9.30;57.20;;;;;;5042897;28;20219;-75
2023/04/04 08:08:02;;;;;;;4.87;3.13;;;9.10;57.40;;;;;;5048138;28;20209;-75
2023/04/04 08:10:31;;;;;;;4.57;2.70;;;9.50;55.10;;;;;;5030985;28;20210;-74
2023/04/04 08:12:59;;;;;;;4.57;2.80;;;8.70;54.50;;;;;;5027941;28;20213;-76
2023/04/04 08:15:27;;;;;;;4.07;2.90;;;9.50;54.50;;;;;;5030792;28;20225;-74
2023/04/04 08:17:56;;;;;;;5.57;3.17;;;8.40;52.20;;;;;;5036625;28;20216;-75
2023/04/04 08:20:27;;;;;;;4.73;2.60;;;7.80;54.40;;;;;;5045169;28;20678;-75
2023/04/04 08:22:55;;;;;;;4.93;3.13;;;7.20;55.30;;;;;;5039912;28;20224;-75
2023/04/04 08:25:23;;;;;;;5.30;3.10;;;6.00;56.30;;;;;;5045434;28;20301;-76
2023/04/04 08:27:51;;;;;;;4.40;3.00;;;6.60;58.40;;;;;;5041811;28;20215;-76
2023/04/04 08:30:20;;;;;;;5.77;2.90;;;7.70;58.60;;;;;;5040345;28;20285;-75
2023/04/04 08:32:48;;;;;;;3.83;2.77;;;7.80;55.20;;;;;;5042095;28;20268;-76
2023/04/04 08:35:16;;;;;;;4.40;2.90;;;6.80;56.20;;;;;;5045062;28;20236;-76
2023/04/04 08:37:46;;;;;;;4.17;3.03;;;5.50;58.20;;;;;;5048271;28;20205;-76
2023/04/04 08:40:15;;;;;;;6.17;3.30;;;5.20;59.50;;;;;;5035130;28;20307;-76
2023/04/04 08:42:44;;;;;;;4.70;3.20;;;5.00;63.40;;;;;;5034353;28;20255;-75
2023/04/04 08:45:16;;;;;;;5.10;3.20;;;5.00;65.30;;;;;;5032460;28;20213;-76
2023/04/04 08:47:45;;;;;;;8.83;4.10;;;5.40;65.30;;;;;;5017638;28;20219;-75
2023/04/04 08:50:14;;;;;;;5.83;3.20;;;5.50;63.20;;;;;;5015050;28;20256;-76
2023/04/04 08:52:44;;;;;;;5.37;3.17;;;5.40;61.90;;;;;;5014032;28;20747;-74
2023/04/04 08:55:14;;;;;;;4.80;3.20;;;5.20;61.30;;;;;;5025709;28;20297;-76
2023/04/04 08:57:43;;;;;;;6.80;2.97;;;5.20;62.70;;;;;;5034584;28;20236;-76
2023/04/04 09:00:12;;;;;;;6.67;3.13;;;5.00;62.10;;;;;;5036653;28;20314;-75
2023/04/04 09:02:47;;;;;;;5.40;3.10;;;4.40;62.50;;;;;;5046147;28;20301;-75
2023/04/04 09:05:16;;;;;;;4.90;3.17;;;3.80;65.70;;;;;;5033448;28;20220;-77
2023/04/04 09:07:45;;;;;;;4.73;3.00;;;4.00;68.50;;;;;;5034180;28;20300;-75
2023/04/04 09:10:14;;;;;;;3.77;2.80;;;4.50;65.40;;;;;;5034373;28;20504;-76
2023/04/04 09:12:46;;;;;;;5.00;3.17;;;4.70;63.90;;;;;;5025578;28;20270;-75
2023/04/04 09:15:15;;;;;;;6.87;3.30;;;4.60;63.80;;;;;;4994516;28;20738;-77
2023/04/04 09:17:44;;;;;;;5.40;2.80;;;4.20;63.10;;;;;;4994704;28;20297;-77
2023/04/04 09:20:37;;;;;;;4.47;2.93;;;4.70;64.60;;;;;;4998965;28;20241;-77
2023/04/04 09:23:07;;;;;;;5.43;3.10;;;5.60;64.90;;;;;;5033719;28;20609;-76
2023/04/04 09:25:38;;;;;;;4.27;2.90;;;6.50;59.90;;;;;;5034061;28;20291;-77
2023/04/04 09:28:07;;;;;;;3.93;2.80;;;6.20;58.40;;;;;;5023877;28;20209;-76
2023/04/04 09:30:35;;;;;;;5.53;3.00;;;6.50;59.20;;;;;;5033816;28;20205;-76
2023/04/04 09:33:05;;;;;;;3.77;2.70;;;7.30;60.30;;;;;;5033193;28;20296;-77
2023/04/04 09:35:37;;;;;;;3.97;2.60;;;8.40;55.60;;;;;;5033504;28;20203;-77
2023/04/04 09:38:06;;;;;;;3.57;2.80;;;9.00;53.00;;;;;;5031951;28;20240;-77
2023/04/04 09:40:35;;;;;;;4.17;2.90;;;9.30;55.10;;;;;;5033429;28;20315;-76
2023/04/04 09:43:08;;;;;;;4.40;2.60;;;9.30;50.30;;;;;;5033537;28;20220;-76
2023/04/04 09:45:39;;;;;;;5.23;2.93;;;11.30;51.50;;;;;;5023659;28;20210;-76
2023/04/04 09:48:08;;;;;;;2.97;2.43;;;11.20;47.10;;;;;;5015251;28;20197;-75
2023/04/04 09:50:45;;;;;;;4.93;2.70;;;9.50;48.10;;;;;;5022437;28;20226;-77
2023/04/04 09:53:17;;;;;;;4.27;2.57;;;9.40;49.40;;;;;;5022402;28;20209;-77
2023/04/04 09:55:50;;;;;;;3.90;2.80;;;8.40;50.40;;;;;;5034479;28;20200;-74
2023/04/04 09:58:25;;;;;;;4.43;2.87;;;7.60;52.70;;;;;;5034159;28;20192;-77
2023/04/04 10:00:55;;;;;;;4.33;2.80;;;7.90;55.30;;;;;;5037576;28;20309;-75
2023/04/04 10:03:24;;;;;;;6.60;2.90;;;8.20;54.10;;;;;;5033460;28;20611;-73
2023/04/04 10:05:57;;;;;;;4.87;2.90;;;9.30;49.90;;;;;;5032757;28;20205;-77
2023/04/04 10:08:27;;;;;;;4.67;2.93;;;9.90;49.10;;;;;;5030928;28;20251;-78
2023/04/04 10:10:58;;;;;;;4.00;2.50;;;9.30;47.70;;;;;;5032955;28;20296;-76
2023/04/04 10:13:42;;;;;;;3.87;2.80;;;8.20;50.40;;;;;;5032533;28;20536;-74
2023/04/04 10:16:11;;;;;;;4.90;2.60;;;8.30;50.20;;;;;;5032603;28;20229;-77
2023/04/04 10:18:39;;;;;;;4.87;2.80;;;7.20;52.40;;;;;;5031528;28;20213;-76
2023/04/04 10:21:09;;;;;;;4.93;2.40;;;6.50;53.40;;;;;;5032420;28;20221;-78
2023/04/04 10:23:42;;;;;;;4.93;2.90;;;7.40;54.90;;;;;;5032686;28;20198;-77
2023/04/04 10:26:11;;;;;;;5.87;3.00;;;8.00;52.50;;;;;;5030319;28;20217;-75
2023/04/04 10:28:42;;;;;;;4.33;2.70;;;8.50;51.00;;;;;;5032586;28;20550;-76
2023/04/04 10:31:20;;;;;;;4.40;2.83;;;9.30;50.50;;;;;;5032628;28;20201;-78
2023/04/04 10:33:56;;;;;;;3.17;2.70;;;10.50;48.30;;;;;;5031039;28;20536;-77
2023/04/04 10:36:28;;;;;;;4.13;2.70;;;11.60;46.50;;;;;;5032557;28;20216;-75
2023/04/04 10:39:03;;;;;;;4.20;3.00;;;10.40;47.50;;;;;;5032764;28;20193;-76
2023/04/04 10:41:32;;;;;;;5.53;2.80;;;10.70;47.60;;;;;;5020922;28;20236;-74
2023/04/04 10:44:14;;;;;;;3.93;2.90;;;11.80;46.40;;;;;;5001141;28;20241;-73
2023/04/04 10:46:46;;;;;;;3.47;2.80;;;9.60;46.40;;;;;;5012848;28;20202;-75
2023/04/04 10:49:15;;;;;;;4.17;2.83;;;8.90;47.70;;;;;;5031171;28;20231;-74
2023/04/04 10:51:43;;;;;;;4.93;2.60;;;8.00;50.10;;;;;;5042526;28;20208;-77
2023/04/04 10:54:23;;;;;;;5.93;3.13;;;8.50;50.10;;;;;;5034863;28;20201;-77
2023/04/04 10:56:51;;;;;;;4.27;2.57;;;7.80;49.90;;;;;;5034963;28;20705;-77
2023/04/04 10:59:21;;;;;;;4.57;2.77;;;6.80;49.90;;;;;;5030633;28;20241;-77
2023/04/04 11:01:55;;;;;;;5.30;2.97;;;7.00;53.50;;;;;;5031702;28;20702;-77
2023/04/04 11:04:32;;;;;;;5.20;3.10;;;7.30;53.40;;;;;;5032463;28;20225;-75
2023/04/04 11:07:14;;;;;;;4.90;2.70;;;8.00;54.50;;;;;;5030761;28;20296;-78
2023/04/04 11:09:47;;;;;;;5.27;3.00;;;8.60;51.90;;;;;;5032338;28;20197;-78
2023/04/04 11:12:22;;;;;;;5.27;2.80;;;9.40;53.10;;;;;;5034691;28;20215;-75
2023/04/04 11:15:08;;;;;;;4.77;3.10;;;10.00;49.20;;;;;;5036094;28;20686;-77
2023/04/04 11:17:58;;;;;;;5.10;2.80;;;9.00;49.40;;;;;;5034430;28;20215;-77
2023/04/04 11:20:32;;;;;;;4.07;2.80;;;8.40;49.20;;;;;;5033449;28;20279;-77
2023/04/04 11:23:06;;;;;;;4.80;2.70;;;9.40;50.00;;;;;;5036060;28;20219;-76
2023/04/04 11:25:36;;;;;;;4.00;2.57;;;9.00;49.50;;;;;;5023045;28;20202;-77
2023/04/04 11:28:09;;;;;;;3.97;2.53;;;10.40;49.70;;;;;;5014810;28;20205;-77
2023/04/04 11:30:43;;;;;;;4.93;3.00;;;11.40;45.80;;;;;;5014980;28;20550;-76
2023/04/04 11:33:14;;;;;;;3.47;2.60;;;10.20;44.90;;;;;;5016106;28;20659;-76
2023/04/04 11:35:49;;;;;;;5.77;3.20;;;9.40;48.10;;;;;;5016780;28;20636;-75
2023/04/04 11:38:19;;;;;;;5.03;2.90;;;9.40;49.00;;;;;;5024341;28;20236;-75
2023/04/04 11:40:55;;;;;;;4.43;2.90;;;9.10;48.30;;;;;;5035484;28;20232;-77
2023/04/04 11:43:23;;;;;;;3.70;2.80;;;10.20;51.10;;;;;;5021104;28;20213;-76
2023/04/04 11:45:54;;;;;;;3.80;2.90;;;10.20;49.20;;;;;;5024015;28;20208;-76
2023/04/04 11:48:23;;;;;;;4.63;3.13;;;9.00;47.80;;;;;;5035798;28;20195;-75
2023/04/04 11:50:53;;;;;;;3.83;3.10;;;9.10;49.40;;;;;;5035680;28;20227;-77
2023/04/04 11:53:21;;;;;;;5.63;2.90;;;9.00;50.80;;;;;;5034917;28;20209;-77
2023/04/04 11:55:53;;;;;;;5.87;3.37;;;8.30;48.80;;;;;;5017373;28;20566;-74
2023/04/04 11:58:22;;;;;;;4.07;3.27;;;8.20;49.60;;;;;;5024964;28;20233;-77
2023/04/04 12:00:50;;;;;;;5.17;2.90;;;8.30;51.60;;;;;;5033312;28;20232;-74
2023/04/04 12:03:20;;;;;;;5.13;3.37;;;8.10;50.90;;;;;;5034708;28;20510;-77
2023/04/04 12:05:49;;;;;;;4.97;2.90;;;7.80;50.50;;;;;;5035579;28;20247;-77
2023/04/04 12:08:18;;;;;;;4.27;3.03;;;7.60;51.20;;;;;;5022453;28;20220;-75
2023/04/04 12:10:46;;;;;;;4.13;3.20;;;7.30;53.20;;;;;;4995746;28;20202;-77
2023/04/04 12:13:15;;;;;;;3.97;2.90;;;7.30;55.00;;;;;;4995418;28;20309;-77
2023/04/04 12:15:43;;;;;;;6.33;3.13;;;7.20;55.50;;;;;;5000659;28;20312;-76
2023/04/04 12:18:22;;;;;;;4.27;2.90;;;6.90;58.10;;;;;;5015318;28;20210;-75
2023/04/04 12:20:51;;;;;;;4.17;2.90;;;7.20;56.20;;;;;;5014829;28;20323;-75
2023/04/04 12:23:20;;;;;;;5.40;3.07;;;6.90;54.50;;;;;;5013587;28;20224;-76
2023/04/04 12:25:52;;;;;;;3.93;2.93;;;7.00;54.50;;;;;;5026030;28;20204;-77
2023/04/04 12:28:21;;;;;;;4.80;3.40;;;6.60;54.30;;;;;;5034637;28;20193;-76
2023/04/04 12:30:50;;;;;;;5.33;3.10;;;5.80;54.10;;;;;;5034605;28;20299;-76
2023/04/04 12:33:18;;;;;;;5.67;3.50;;;6.00;57.10;;;;;;5032488;28;20204;-77
2023/04/04 12:35:53;;;;;;;5.20;3.10;;;5.40;55.70;;;;;;5035024;28;20304;-76
2023/04/04 12:38:22;;;;;;;4.47;3.10;;;6.10;57.20;;;;;;5034833;28;20591;-76
2023/04/04 12:40:51;;;;;;;5.13;3.13;;;6.30;55.60;;;;;;5032486;28;20241;-75
2023/04/04 12:43:20;;;;;;;6.20;3.00;;;6.60;55.90;;;;;;5035055;28;20215;-76
2023/04/04 12:45:51;;;;;;;4.63;3.23;;;7.10;59.10;;;;;;5035246;28;20201;-75
2023/04/04 12:48:20;;;;;;;4.60;3.10;;;7.30;57.10;;;;;;5031319;28;20197;-75
2023/04/04 12:50:54;;;;;;;4.87;2.90;;;7.50;55.80;;;;;;5026940;28;20223;-75
2023/04/04 12:53:23;;;;;;;3.90;2.77;;;7.80;57.50;;;;;;5034084;28;20215;-76
2023/04/04 12:55:55;;;;;;;5.33;3.10;;;7.90;56.50;;;;;;5034609;28;20204;-76
2023/04/04 12:58:25;;;;;;;5.50;3.00;;;8.10;56.60;;;;;;5032436;28;20215;-76
2023/04/04 13:00:55;;;;;;;3.53;2.73;;;8.30;56.60;;;;;;5036856;28;20571;-75
2023/04/04 13:03:25;;;;;;;4.93;3.10;;;7.90;55.10;;;;;;5005292;28;20264;-77